createdAt,value
2023-03-06T00:00:21.531Z,963.37
2023-03-06T00:01:21.532Z,963.31
2023-03-06T00:02:21.583Z,963.34
2023-03-06T00:03:22.677Z,963.35
2023-03-06T00:04:22.644Z,963.31
2023-03-06T00:24:02.582Z,963.11
2023-03-06T00:25:02.070Z,963.10
2023-03-06T00:26:02.086Z,963.13
2023-03-06T00:27:02.129Z,963.09
2023-03-06T00:28:02.189Z,963.10
2023-03-06T00:29:04.306Z,963.07
2023-03-06T00:30:03.974Z,963.06
2023-03-06T00:31:04.350Z,963.02
2023-03-06T00:32:03.490Z,963.04
2023-03-06T00:33:02.294Z,963.03
2023-03-06T00:34:03.316Z,963.02
2023-03-06T00:35:02.136Z,963.01
2023-03-06T00:36:02.130Z,962.99
2023-03-06T00:37:02.161Z,962.99
2023-03-06T00:38:03.802Z,962.97
2023-03-06T00:39:02.207Z,962.94
2023-03-06T00:40:02.214Z,962.97
2023-03-06T00:41:02.237Z,962.94
2023-03-06T00:42:02.365Z,962.92
2023-03-06T00:43:03.807Z,962.87
2023-03-06T00:44:03.839Z,962.86
2023-03-06T00:45:02.352Z,962.86
2023-03-06T00:46:02.902Z,962.83
2023-03-06T00:47:02.309Z,962.80
2023-03-06T00:48:02.368Z,962.76
2023-03-06T00:49:02.542Z,962.77
2023-03-06T00:50:02.397Z,962.68
2023-03-06T00:51:02.468Z,962.74
2023-03-06T00:52:02.336Z,962.70
2023-03-06T00:53:02.520Z,962.72
2023-03-06T00:54:02.338Z,962.71
2023-03-06T00:55:02.284Z,962.67
2023-03-06T00:56:02.319Z,962.67
2023-03-06T00:57:03.423Z,962.67
2023-03-06T00:58:02.422Z,962.66
2023-03-06T00:59:02.349Z,962.67
2023-03-06T01:00:02.402Z,962.65
2023-03-06T01:01:02.474Z,962.65
2023-03-06T01:02:02.482Z,962.62
2023-03-06T01:03:02.493Z,962.62
2023-03-06T01:04:02.460Z,962.59
2023-03-06T01:05:02.154Z,962.57
2023-03-06T01:06:02.230Z,962.52
2023-03-06T01:07:02.196Z,962.54
2023-03-06T01:08:02.283Z,962.52
2023-03-06T01:13:51.256Z,962.44
2023-03-06T01:14:50.727Z,962.43
2023-03-06T01:15:51.246Z,962.39
2023-03-06T01:16:50.365Z,962.39
2023-03-06T01:17:51.243Z,962.34
2023-03-06T01:18:50.422Z,962.35
2023-03-06T01:19:50.450Z,962.31
2023-03-06T01:20:51.789Z,962.33
2023-03-06T01:21:50.754Z,962.32
2023-03-06T01:22:50.712Z,962.29
2023-03-06T01:23:56.526Z,962.30
2023-03-06T01:24:50.336Z,962.29
2023-03-06T01:25:50.120Z,962.30
2023-03-06T01:26:51.227Z,962.24
2023-03-06T01:27:50.167Z,962.22
2023-03-06T01:28:50.194Z,962.19
2023-03-06T01:29:50.249Z,962.17
2023-03-06T01:30:50.247Z,962.15
2023-03-06T01:31:51.717Z,962.11
2023-03-06T01:32:50.321Z,962.07
2023-03-06T01:33:50.343Z,962.07
2023-03-06T01:34:50.262Z,962.03
2023-03-06T01:36:10.132Z,962.04
2023-03-06T01:36:50.281Z,962.08
2023-03-06T01:38:03.317Z,962.06
2023-03-06T01:38:50.310Z,962.03
2023-03-06T01:39:50.328Z,961.97
2023-03-06T01:40:50.361Z,962.00
2023-03-06T01:41:50.377Z,961.95
2023-03-06T01:42:50.783Z,961.94
2023-03-06T01:43:50.500Z,961.94
2023-03-06T01:44:50.490Z,961.93
2023-03-06T01:45:50.536Z,961.93
2023-03-06T01:46:50.488Z,961.91
2023-03-06T01:47:49.437Z,961.89
2023-03-06T01:48:49.463Z,961.85
2023-03-06T01:49:49.498Z,961.86
2023-03-06T01:50:49.587Z,961.82
2023-03-06T01:51:49.579Z,961.81
2023-03-06T01:52:49.652Z,961.79
2023-03-06T01:53:49.688Z,961.77
2023-03-06T01:54:49.734Z,961.73
2023-03-06T01:55:49.746Z,961.71
2023-03-06T01:56:49.799Z,961.67
2023-03-06T01:57:49.827Z,961.63
2023-03-06T01:58:49.872Z,961.59
2023-03-06T01:59:49.942Z,961.60
2023-03-06T02:00:49.989Z,961.64
2023-03-06T02:01:50.032Z,961.61
2023-03-06T02:02:50.058Z,961.66
2023-03-06T02:03:50.068Z,961.64
2023-03-06T02:04:50.193Z,961.66
2023-03-06T02:05:50.238Z,961.64
2023-03-06T02:06:50.240Z,961.65
2023-03-06T02:07:51.218Z,961.63
2023-03-06T02:08:50.321Z,961.69
2023-03-06T02:09:50.381Z,961.69
2023-03-06T02:10:50.439Z,961.66
2023-03-06T02:11:50.456Z,961.66
2023-03-06T02:12:50.468Z,961.65
2023-03-06T02:13:50.522Z,961.68
2023-03-06T02:14:50.552Z,961.63
2023-03-06T02:15:50.578Z,961.63
2023-03-06T02:16:50.664Z,961.60
2023-03-06T02:17:50.695Z,961.59
2023-03-06T02:18:50.688Z,961.52
2023-03-06T02:19:50.733Z,961.51
2023-03-06T02:20:50.782Z,961.55
2023-03-06T02:21:50.817Z,961.51
2023-03-06T02:22:50.891Z,961.50
2023-03-06T02:23:50.895Z,961.48
2023-03-06T02:24:50.933Z,961.44
2023-03-06T02:25:51.007Z,961.46
2023-03-06T02:26:51.013Z,961.42
2023-03-06T02:27:51.065Z,961.42
2023-03-06T02:28:51.141Z,961.38
2023-03-06T02:29:51.175Z,961.39
2023-03-06T02:30:51.215Z,961.36
2023-03-06T02:31:51.257Z,961.38
2023-03-06T02:32:51.268Z,961.35
2023-03-06T02:33:51.310Z,961.35
2023-03-06T02:34:51.343Z,961.34
2023-03-06T02:35:51.474Z,961.31
2023-03-06T02:36:51.466Z,961.30
2023-03-06T02:37:51.470Z,961.31
2023-03-06T02:38:51.515Z,961.27
2023-03-06T02:39:51.562Z,961.27
2023-03-06T02:40:52.227Z,961.30
2023-03-06T02:41:51.665Z,961.31
2023-03-06T02:42:51.675Z,961.30
2023-03-06T02:43:52.739Z,961.27
2023-03-06T02:44:51.761Z,961.20
2023-03-06T02:45:52.815Z,961.21
2023-03-06T02:46:51.846Z,961.19
2023-03-06T02:47:52.745Z,961.14
2023-03-06T02:48:51.949Z,961.17
2023-03-06T02:49:51.979Z,961.17
2023-03-06T02:50:52.004Z,961.18
2023-03-06T02:51:52.049Z,961.16
2023-03-06T02:52:52.098Z,961.14
2023-03-06T02:53:52.143Z,961.14
2023-03-06T02:54:52.197Z,961.16
2023-03-06T02:55:52.203Z,961.14
2023-03-06T02:56:52.253Z,961.12
2023-03-06T02:57:52.278Z,961.12
2023-03-06T02:58:52.360Z,961.12
2023-03-06T02:59:52.368Z,961.11
2023-03-06T03:00:52.417Z,961.08
2023-03-06T03:01:52.451Z,961.08
2023-03-06T03:02:52.520Z,961.07
2023-03-06T03:03:52.538Z,961.02
2023-03-06T03:04:52.639Z,961.04
2023-03-06T03:05:52.611Z,961.00
2023-03-06T03:06:52.655Z,960.97
2023-03-06T03:07:53.213Z,960.98
2023-03-06T03:08:52.777Z,960.94
2023-03-06T03:09:52.771Z,960.95
2023-03-06T03:10:52.849Z,960.94
2023-03-06T03:11:52.859Z,960.97
2023-03-06T03:12:52.925Z,960.96
2023-03-06T03:13:52.942Z,960.94
2023-03-06T03:14:52.977Z,960.91
2023-03-06T03:15:53.124Z,960.95
2023-03-06T03:16:53.082Z,960.94
2023-03-06T03:17:53.111Z,960.98
2023-03-06T03:18:53.142Z,961.00
2023-03-06T03:19:53.185Z,961.07
2023-03-06T03:20:53.251Z,961.07
2023-03-06T03:21:53.293Z,961.05
2023-03-06T03:22:53.303Z,961.04
2023-03-06T03:23:53.357Z,961.07
2023-03-06T03:24:53.449Z,961.07
2023-03-06T03:25:53.437Z,961.07
2023-03-06T03:26:53.499Z,961.05
2023-03-06T03:27:53.521Z,961.05
2023-03-06T03:28:53.550Z,961.00
2023-03-06T03:29:53.598Z,961.04
2023-03-06T03:30:53.662Z,961.02
2023-03-06T03:31:53.717Z,961.00
2023-03-06T03:32:54.219Z,960.98
2023-03-06T03:33:53.766Z,960.95
2023-03-06T03:34:53.802Z,960.94
2023-03-06T03:35:53.913Z,960.93
2023-03-06T03:36:53.909Z,960.94
2023-03-06T03:37:53.926Z,960.95
2023-03-06T03:38:53.992Z,960.92
2023-03-06T03:39:54.018Z,960.97
2023-03-06T03:40:54.040Z,960.98
2023-03-06T03:41:54.093Z,960.98
2023-03-06T03:42:54.121Z,961.01
2023-03-06T03:43:54.186Z,960.99
2023-03-06T03:44:54.216Z,960.96
2023-03-06T03:45:54.253Z,960.96
2023-03-06T03:46:54.330Z,960.95
2023-03-06T03:47:54.329Z,960.95
2023-03-06T03:48:54.383Z,960.95
2023-03-06T03:49:55.233Z,960.92
2023-03-06T03:50:54.462Z,960.90
2023-03-06T03:51:54.522Z,960.94
2023-03-06T03:52:54.554Z,960.95
2023-03-06T03:53:54.571Z,960.95
2023-03-06T03:54:54.619Z,960.93
2023-03-06T03:55:54.655Z,960.92
2023-03-06T03:56:54.760Z,960.93
2023-03-06T03:57:54.734Z,960.89
2023-03-06T03:58:54.795Z,960.88
2023-03-06T03:59:54.827Z,960.83
2023-03-06T04:00:54.895Z,960.87
2023-03-06T04:01:54.948Z,960.86
2023-03-06T04:02:54.951Z,960.85
2023-03-06T04:03:55.006Z,960.85
2023-03-06T04:04:55.070Z,960.87
2023-03-06T04:05:55.069Z,960.89
2023-03-06T04:06:55.128Z,960.88
2023-03-06T04:07:55.183Z,960.88
2023-03-06T04:08:55.210Z,960.95
2023-03-06T04:09:55.225Z,960.88
2023-03-06T04:10:55.273Z,960.90
2023-03-06T04:11:55.305Z,960.89
2023-03-06T04:12:55.387Z,960.88
2023-03-06T04:13:55.441Z,960.87
2023-03-06T04:14:55.427Z,960.86
2023-03-06T04:15:55.548Z,960.89
2023-03-06T04:16:55.508Z,960.84
2023-03-06T04:17:55.559Z,960.84
2023-03-06T04:18:55.594Z,960.79
2023-03-06T04:19:55.641Z,960.79
2023-03-06T04:20:55.715Z,960.85
2023-03-06T04:21:55.726Z,960.86
2023-03-06T04:22:55.758Z,960.90
2023-03-06T04:23:55.803Z,960.88
2023-03-06T04:24:55.833Z,960.84
2023-03-06T04:25:55.922Z,960.86
2023-03-06T04:26:55.922Z,960.88
2023-03-06T04:27:55.979Z,960.86
2023-03-06T04:28:56.006Z,960.92
2023-03-06T04:29:56.050Z,960.85
2023-03-06T04:30:56.114Z,960.87
2023-03-06T04:31:56.132Z,960.86
2023-03-06T04:32:56.196Z,960.82
2023-03-06T04:33:56.217Z,960.81
2023-03-06T04:34:56.252Z,960.76
2023-03-06T04:35:56.359Z,960.77
2023-03-06T04:36:56.333Z,960.75
2023-03-06T04:37:56.420Z,960.73
2023-03-06T04:38:56.484Z,960.72
2023-03-06T04:39:56.492Z,960.76
2023-03-06T04:40:56.497Z,960.75
2023-03-06T04:41:56.552Z,960.74
2023-03-06T04:42:56.584Z,960.79
2023-03-06T04:43:56.618Z,960.77
2023-03-06T04:44:56.696Z,960.82
2023-03-06T04:45:56.763Z,960.81
2023-03-06T04:46:56.748Z,960.79
2023-03-06T04:47:56.780Z,960.78
2023-03-06T04:48:56.838Z,960.77
2023-03-06T04:49:56.874Z,960.73
2023-03-06T04:50:56.945Z,960.74
2023-03-06T04:51:56.982Z,960.72
2023-03-06T04:52:57.005Z,960.71
2023-03-06T04:53:57.026Z,960.68
2023-03-06T04:54:57.083Z,960.68
2023-03-06T04:55:57.106Z,960.65
2023-03-06T04:56:57.184Z,960.64
2023-03-06T04:57:57.191Z,960.67
2023-03-06T04:58:57.246Z,960.64
2023-03-06T04:59:57.324Z,960.65
2023-03-06T05:00:57.402Z,960.64
2023-03-06T05:01:57.486Z,960.63
2023-03-06T05:02:57.408Z,960.65
2023-03-06T05:03:57.487Z,960.70
2023-03-06T05:04:57.498Z,960.67
2023-03-06T05:05:57.515Z,960.69
2023-03-06T05:06:57.568Z,960.68
2023-03-06T05:07:57.625Z,960.66
2023-03-06T05:08:57.649Z,960.63
2023-03-06T05:09:57.679Z,960.61
2023-03-06T05:10:57.731Z,960.64
2023-03-06T05:11:57.802Z,960.63
2023-03-06T05:12:57.809Z,960.65
2023-03-06T05:13:57.849Z,960.64
2023-03-06T05:14:57.884Z,960.70
2023-03-06T05:15:57.932Z,960.69
2023-03-06T05:16:57.999Z,960.67
2023-03-06T05:17:58.017Z,960.64
2023-03-06T05:18:58.052Z,960.65
2023-03-06T05:19:58.094Z,960.62
2023-03-06T05:20:58.130Z,960.64
2023-03-06T05:21:58.208Z,960.62
2023-03-06T05:22:58.217Z,960.60
2023-03-06T05:23:58.259Z,960.60
2023-03-06T05:24:58.297Z,960.60
2023-03-06T05:25:58.367Z,960.57
2023-03-06T05:26:58.375Z,960.60
2023-03-06T05:27:58.420Z,960.60
2023-03-06T05:28:58.455Z,960.64
2023-03-06T05:29:58.527Z,960.66
2023-03-06T05:30:58.534Z,960.64
2023-03-06T05:31:58.650Z,960.65
2023-03-06T05:32:58.613Z,960.64
2023-03-06T05:33:58.674Z,960.66
2023-03-06T05:34:58.698Z,960.62
2023-03-06T05:35:58.759Z,960.64
2023-03-06T05:36:58.809Z,960.63
2023-03-06T05:37:58.832Z,960.64
2023-03-06T05:38:58.864Z,960.59
2023-03-06T05:39:58.912Z,960.57
2023-03-06T05:40:58.947Z,960.61
2023-03-06T05:41:59.040Z,960.62
2023-03-06T05:42:59.029Z,960.58
2023-03-06T05:43:59.073Z,960.56
2023-03-06T05:44:59.147Z,960.58
2023-03-06T05:45:59.191Z,960.59
2023-03-06T05:46:59.225Z,960.59
2023-03-06T05:47:59.234Z,960.55
2023-03-06T05:48:59.289Z,960.55
2023-03-06T05:49:59.318Z,960.54
2023-03-06T05:50:59.398Z,960.54
2023-03-06T05:51:59.402Z,960.57
2023-03-06T05:52:59.454Z,960.56
2023-03-06T05:53:59.484Z,960.51
2023-03-06T05:54:59.560Z,960.54
2023-03-06T05:55:59.577Z,960.55
2023-03-06T05:56:59.617Z,960.54
2023-03-06T05:57:59.659Z,960.58
2023-03-06T05:58:59.733Z,960.56
2023-03-06T05:59:59.729Z,960.60
2023-03-06T06:00:59.785Z,960.64
2023-03-06T06:01:59.837Z,960.64
2023-03-06T06:02:59.854Z,960.63
2023-03-06T06:03:59.949Z,960.64
2023-03-06T06:04:59.933Z,960.61
2023-03-06T06:05:59.966Z,960.62
2023-03-06T06:07:00.055Z,960.58
2023-03-06T06:08:00.067Z,960.62
2023-03-06T06:09:00.098Z,960.60
2023-03-06T06:10:01.767Z,960.65
2023-03-06T06:11:00.181Z,960.70
2023-03-06T06:12:00.255Z,960.67
2023-03-06T06:13:00.267Z,960.68
2023-03-06T06:14:00.330Z,960.71
2023-03-06T06:15:00.338Z,960.73
2023-03-06T06:16:00.452Z,960.73
2023-03-06T06:17:00.426Z,960.74
2023-03-06T06:18:00.474Z,960.76
2023-03-06T06:19:00.536Z,960.79
2023-03-06T06:20:00.548Z,960.77
2023-03-06T06:21:01.222Z,960.77
2023-03-06T06:22:00.633Z,960.81
2023-03-06T06:23:00.668Z,960.79
2023-03-06T06:24:00.717Z,960.78
2023-03-06T06:25:00.750Z,960.81
2023-03-06T06:26:00.818Z,960.77
2023-03-06T06:27:03.646Z,960.80
2023-03-06T06:28:00.881Z,960.80
2023-03-06T06:29:00.937Z,960.79
2023-03-06T06:30:01.023Z,960.77
2023-03-06T06:31:01.032Z,960.80
2023-03-06T06:32:01.107Z,960.76
2023-03-06T06:33:01.173Z,960.78
2023-03-06T06:34:01.203Z,960.77
2023-03-06T06:35:01.209Z,960.74
2023-03-06T06:36:01.305Z,960.75
2023-03-06T06:37:01.301Z,960.74
2023-03-06T06:38:01.345Z,960.77
2023-03-06T06:39:01.319Z,960.78
2023-03-06T06:40:01.438Z,960.82
2023-03-06T06:41:31.190Z,960.81
2023-03-06T06:42:21.714Z,960.80
2023-03-06T06:43:01.585Z,960.81
2023-03-06T06:44:02.247Z,960.81
2023-03-06T06:45:01.614Z,960.84
2023-03-06T06:46:24.293Z,960.85
2023-03-06T06:48:01.868Z,960.88
2023-03-06T06:49:01.811Z,960.92
2023-03-06T06:50:01.972Z,960.96
2023-03-06T06:51:01.856Z,960.98
2023-03-06T06:52:01.890Z,960.93
2023-03-06T06:53:01.939Z,960.97
2023-03-06T06:54:01.985Z,960.91
2023-03-06T06:55:02.019Z,960.91
2023-03-06T06:56:02.066Z,960.89
2023-03-06T06:57:02.074Z,960.91
2023-03-06T06:58:02.132Z,960.91
2023-03-06T06:59:15.778Z,960.91
2023-03-06T07:00:02.222Z,960.84
2023-03-06T07:01:02.240Z,960.85
2023-03-06T07:02:02.298Z,960.92
2023-03-06T07:03:02.315Z,960.89
2023-03-06T07:04:02.447Z,960.90
2023-03-06T07:05:04.983Z,960.94
2023-03-06T07:06:02.463Z,960.96
2023-03-06T07:07:02.530Z,960.98
2023-03-06T07:08:02.651Z,961.02
2023-03-06T07:09:02.606Z,961.07
2023-03-06T07:10:02.660Z,961.03
2023-03-06T07:11:02.687Z,961.04
2023-03-06T07:12:02.716Z,961.06
2023-03-06T07:13:02.841Z,961.05
2023-03-06T07:14:02.773Z,961.07
2023-03-06T07:15:02.859Z,961.08
2023-03-06T07:16:02.894Z,961.09
2023-03-06T07:17:02.892Z,961.09
2023-03-06T07:18:02.945Z,961.11
2023-03-06T07:19:02.977Z,961.13
2023-03-06T07:20:03.068Z,961.13
2023-03-06T07:21:03.107Z,961.18
2023-03-06T07:22:03.107Z,961.14
2023-03-06T07:23:03.148Z,961.21
2023-03-06T07:24:03.204Z,961.16
2023-03-06T07:25:03.326Z,961.15
2023-03-06T07:26:03.318Z,961.16
2023-03-06T07:27:03.342Z,961.16
2023-03-06T07:28:03.427Z,961.19
2023-03-06T07:29:04.234Z,961.21
2023-03-06T07:30:03.499Z,961.25
2023-03-06T07:31:03.514Z,961.24
2023-03-06T07:32:03.615Z,961.25
2023-03-06T07:33:03.596Z,961.21
2023-03-06T07:34:05.007Z,961.23
2023-03-06T07:35:19.433Z,961.22
2023-03-06T07:36:03.779Z,961.25
2023-03-06T07:37:03.772Z,961.21
2023-03-06T07:38:03.775Z,961.20
2023-03-06T07:39:03.851Z,961.22
2023-03-06T07:40:03.910Z,961.19
2023-03-06T07:41:03.903Z,961.18
2023-03-06T07:42:03.991Z,961.16
2023-03-06T07:43:18.337Z,961.10
2023-03-06T07:44:04.064Z,961.14
2023-03-06T07:45:04.172Z,961.13
2023-03-06T07:46:04.138Z,961.12
2023-03-06T07:47:04.230Z,961.14
2023-03-06T07:48:05.625Z,961.17
2023-03-06T07:49:04.281Z,961.17
2023-03-06T07:50:04.291Z,961.10
2023-03-06T07:51:04.384Z,961.17
2023-03-06T07:52:04.492Z,961.20
2023-03-06T07:53:04.467Z,961.18
2023-03-06T07:54:04.505Z,961.23
2023-03-06T07:55:04.518Z,961.24
2023-03-06T07:56:04.579Z,961.24
2023-03-06T07:57:04.614Z,961.17
2023-03-06T07:58:04.657Z,961.15
2023-03-06T07:59:04.741Z,961.20
2023-03-06T08:00:04.704Z,961.18
2023-03-06T08:01:04.812Z,961.22
2023-03-06T08:02:04.925Z,961.21
2023-03-06T08:03:04.961Z,961.23
2023-03-06T08:04:05.005Z,961.23
2023-03-06T08:05:04.934Z,961.19
2023-03-06T08:06:04.991Z,961.20
2023-03-06T08:07:05.026Z,961.18
2023-03-06T08:08:05.072Z,961.25
2023-03-06T08:09:05.160Z,961.24
2023-03-06T08:10:05.134Z,961.21
2023-03-06T08:11:05.173Z,961.21
2023-03-06T08:12:05.236Z,961.21
2023-03-06T08:13:05.289Z,961.25
2023-03-06T08:14:05.393Z,961.29
2023-03-06T08:15:05.323Z,961.31
2023-03-06T08:16:05.449Z,961.31
2023-03-06T08:17:05.457Z,961.35
2023-03-06T08:18:05.489Z,961.37
2023-03-06T08:19:05.542Z,961.38
2023-03-06T08:20:05.548Z,961.37
2023-03-06T08:21:05.589Z,961.38
2023-03-06T08:22:05.663Z,961.39
2023-03-06T08:23:05.700Z,961.37
2023-03-06T08:24:06.771Z,961.41
2023-03-06T08:25:05.787Z,961.39
2023-03-06T08:26:05.835Z,961.39
2023-03-06T08:27:05.869Z,961.45
2023-03-06T08:28:06.498Z,961.48
2023-03-06T08:29:06.041Z,961.54
2023-03-06T08:30:05.996Z,961.52
2023-03-06T08:31:06.061Z,961.54
2023-03-06T08:32:06.148Z,961.53
2023-03-06T08:33:06.123Z,961.60
2023-03-06T08:34:06.226Z,961.55
2023-03-06T08:35:06.195Z,961.52
2023-03-06T08:36:06.245Z,961.54
2023-03-06T08:37:06.383Z,961.56
2023-03-06T08:38:06.310Z,961.62
2023-03-06T08:39:06.363Z,961.60
2023-03-06T08:40:06.429Z,961.66
2023-03-06T08:41:06.427Z,961.63
2023-03-06T08:42:06.495Z,961.67
2023-03-06T08:43:06.503Z,961.66
2023-03-06T08:44:06.631Z,961.66
2023-03-06T08:45:06.671Z,961.66
2023-03-06T08:46:06.730Z,961.73
2023-03-06T08:47:06.720Z,961.69
2023-03-06T08:48:06.753Z,961.67
2023-03-06T08:49:06.854Z,961.69
2023-03-06T08:50:06.841Z,961.71
2023-03-06T08:51:06.863Z,961.70
2023-03-06T08:52:06.887Z,961.71
2023-03-06T08:53:06.972Z,961.71
2023-03-06T08:54:07.084Z,961.71
2023-03-06T08:55:07.137Z,961.78
2023-03-06T08:56:07.089Z,961.76
2023-03-06T08:57:07.213Z,961.76
2023-03-06T08:58:07.177Z,961.73
2023-03-06T08:59:07.231Z,961.71
2023-03-06T09:00:07.220Z,961.76
2023-03-06T09:01:07.418Z,961.75
2023-03-06T09:02:07.432Z,961.75
2023-03-06T09:03:07.402Z,961.74
2023-03-06T09:04:08.231Z,961.71
2023-03-06T09:05:07.507Z,961.77
2023-03-06T09:06:07.552Z,961.74
2023-03-06T09:07:07.677Z,961.71
2023-03-06T09:08:07.611Z,961.78
2023-03-06T09:09:07.699Z,961.80
2023-03-06T09:10:07.703Z,961.82
2023-03-06T09:11:08.238Z,961.81
2023-03-06T09:12:07.873Z,961.83
2023-03-06T09:13:07.837Z,961.82
2023-03-06T09:14:07.902Z,961.81
2023-03-06T09:15:10.736Z,961.84
2023-03-06T09:16:11.321Z,961.80
2023-03-06T09:17:10.603Z,961.78
2023-03-06T09:18:10.640Z,961.82
2023-03-06T09:19:10.740Z,961.83
2023-03-06T09:20:10.710Z,961.82
2023-03-06T09:21:10.703Z,961.86
2023-03-06T09:22:11.291Z,961.89
2023-03-06T09:23:10.787Z,961.84
2023-03-06T09:24:11.242Z,961.82
2023-03-06T09:25:10.804Z,961.81
2023-03-06T09:26:10.835Z,961.82
2023-03-06T09:27:11.236Z,961.84
2023-03-06T09:28:12.359Z,961.77
2023-03-06T09:29:10.913Z,961.82
2023-03-06T09:30:10.934Z,961.78
2023-03-06T09:31:11.036Z,961.76
2023-03-06T09:32:12.184Z,961.81
2023-03-06T09:33:11.294Z,961.76
2023-03-06T09:34:11.096Z,961.79
2023-03-06T09:35:11.073Z,961.77
2023-03-06T09:36:11.772Z,961.76
2023-03-06T09:37:11.221Z,961.81
2023-03-06T09:38:11.779Z,961.83
2023-03-06T09:39:11.750Z,961.84
2023-03-06T09:40:11.758Z,961.80
2023-03-06T09:41:11.763Z,961.85
2023-03-06T09:42:12.359Z,961.79
2023-03-06T09:43:11.767Z,961.84
2023-03-06T09:44:11.770Z,961.84
2023-03-06T09:45:10.251Z,961.84
2023-03-06T09:46:10.294Z,961.85
2023-03-06T09:47:10.353Z,961.83
2023-03-06T09:48:10.272Z,961.84
2023-03-06T09:49:10.427Z,961.77
2023-03-06T09:50:10.302Z,961.77
2023-03-06T09:51:10.301Z,961.80
2023-03-06T09:52:09.479Z,961.82
2023-03-06T09:53:09.672Z,961.79
2023-03-06T09:54:09.706Z,961.81
2023-03-06T09:55:09.640Z,961.76
2023-03-06T09:56:09.655Z,961.79
2023-03-06T09:57:09.734Z,961.81
2023-03-06T09:58:09.745Z,961.78
2023-03-06T09:59:09.913Z,961.78
2023-03-06T10:00:09.897Z,961.74
2023-03-06T10:01:09.935Z,961.79
2023-03-06T10:02:10.074Z,961.83
2023-03-06T10:03:10.068Z,961.84
2023-03-06T10:04:09.996Z,961.84
2023-03-06T10:05:10.127Z,961.83
2023-03-06T10:06:10.029Z,961.79
2023-03-06T10:07:10.086Z,961.81
2023-03-06T10:08:10.152Z,961.80
2023-03-06T10:09:13.862Z,961.83
2023-03-06T10:10:10.229Z,961.79
2023-03-06T10:11:10.268Z,961.85
2023-03-06T10:12:10.288Z,961.80
2023-03-06T10:13:17.255Z,961.80
2023-03-06T10:14:10.638Z,961.78
2023-03-06T10:15:10.590Z,961.78
2023-03-06T10:16:14.031Z,961.82
2023-03-06T10:17:17.234Z,961.79
2023-03-06T10:18:17.243Z,961.78
2023-03-06T10:19:10.719Z,961.82
2023-03-06T10:20:14.061Z,961.77
2023-03-06T10:21:19.428Z,961.77
2023-03-06T10:22:17.294Z,961.81
2023-03-06T10:23:11.805Z,961.81
2023-03-06T10:24:17.775Z,961.71
2023-03-06T10:25:13.906Z,961.81
2023-03-06T10:26:13.970Z,961.80
2023-03-06T10:27:14.044Z,961.78
2023-03-06T10:28:14.041Z,961.80
2023-03-06T10:29:14.105Z,961.79
2023-03-06T10:30:17.755Z,961.78
2023-03-06T10:31:14.211Z,961.77
2023-03-06T10:32:14.119Z,961.76
2023-03-06T10:33:14.107Z,961.74
2023-03-06T10:34:14.127Z,961.73
2023-03-06T10:35:14.061Z,961.79
2023-03-06T10:36:14.088Z,961.77
2023-03-06T10:37:14.092Z,961.77
2023-03-06T10:38:14.163Z,961.76
2023-03-06T10:39:14.150Z,961.74
2023-03-06T10:40:14.188Z,961.75
2023-03-06T10:41:14.246Z,961.71
2023-03-06T10:42:14.238Z,961.70
2023-03-06T10:43:14.262Z,961.74
2023-03-06T10:44:14.283Z,961.71
2023-03-06T10:45:14.291Z,961.67
2023-03-06T10:46:14.309Z,961.67
2023-03-06T10:47:14.385Z,961.70
2023-03-06T10:48:14.397Z,961.70
2023-03-06T10:49:14.386Z,961.69
2023-03-06T10:50:15.360Z,961.67
2023-03-06T10:51:18.449Z,961.67
2023-03-06T10:52:15.375Z,961.64
2023-03-06T10:53:14.508Z,961.70
2023-03-06T10:54:14.529Z,961.70
2023-03-06T10:55:14.538Z,961.72
2023-03-06T10:56:14.559Z,961.70
2023-03-06T10:57:14.597Z,961.69
2023-03-06T10:58:14.607Z,961.71
2023-03-06T10:59:14.640Z,961.72
2023-03-06T11:00:14.621Z,961.71
2023-03-06T11:01:14.840Z,961.70
2023-03-06T11:02:14.696Z,961.71
2023-03-06T11:03:14.696Z,961.71
2023-03-06T11:04:14.790Z,961.73
2023-03-06T11:05:13.946Z,961.73
2023-03-06T11:06:13.933Z,961.73
2023-03-06T11:07:13.982Z,961.74
2023-03-06T11:08:14.002Z,961.72
2023-03-06T11:09:14.037Z,961.74
2023-03-06T11:10:14.094Z,961.76
2023-03-06T11:11:14.077Z,961.73
2023-03-06T11:12:14.074Z,961.69
2023-03-06T11:13:14.109Z,961.73
2023-03-06T11:14:14.188Z,961.72
2023-03-06T11:15:14.252Z,961.66
2023-03-06T11:16:14.289Z,961.72
2023-03-06T11:17:14.208Z,961.73
2023-03-06T11:18:14.255Z,961.74
2023-03-06T11:19:14.305Z,961.68
2023-03-06T11:20:14.360Z,961.69
2023-03-06T11:21:14.298Z,961.71
2023-03-06T11:22:14.357Z,961.73
2023-03-06T11:23:14.349Z,961.70
2023-03-06T11:24:14.357Z,961.70
2023-03-06T11:25:14.076Z,961.73
2023-03-06T11:26:14.294Z,961.66
2023-03-06T11:27:14.122Z,961.69
2023-03-06T11:28:14.245Z,961.66
2023-03-06T11:29:14.350Z,961.65
2023-03-06T11:30:14.190Z,961.67
2023-03-06T11:31:14.237Z,961.67
2023-03-06T11:32:14.295Z,961.70
2023-03-06T11:33:14.263Z,961.65
2023-03-06T11:34:14.334Z,961.69
2023-03-06T11:35:14.178Z,961.72
2023-03-06T11:36:14.192Z,961.63
2023-03-06T11:37:14.155Z,961.63
2023-03-06T11:38:14.201Z,961.61
2023-03-06T11:39:15.575Z,961.59
2023-03-06T11:40:14.208Z,961.55
2023-03-06T11:41:14.212Z,961.52
2023-03-06T11:42:14.365Z,961.55
2023-03-06T11:43:14.436Z,961.56
2023-03-06T11:44:14.385Z,961.51
2023-03-06T11:45:14.536Z,961.55
2023-03-06T11:46:14.608Z,961.52
2023-03-06T11:47:14.616Z,961.47
2023-03-06T11:48:14.553Z,961.50
2023-03-06T11:49:14.609Z,961.50
2023-03-06T11:50:14.632Z,961.46
2023-03-06T11:51:14.754Z,961.48
2023-03-06T11:52:14.749Z,961.49
2023-03-06T11:53:14.787Z,961.44
2023-03-06T11:54:14.819Z,961.47
2023-03-06T11:55:14.876Z,961.43
2023-03-06T11:56:14.973Z,961.42
2023-03-06T11:57:14.974Z,961.41
2023-03-06T11:58:15.047Z,961.40
2023-03-06T11:59:15.023Z,961.42
2023-03-06T12:00:15.041Z,961.38
2023-03-06T12:01:15.091Z,961.37
2023-03-06T12:02:15.204Z,961.38
2023-03-06T12:03:15.178Z,961.33
2023-03-06T12:04:15.209Z,961.35
2023-03-06T12:05:15.270Z,961.31
2023-03-06T12:06:15.325Z,961.35
2023-03-06T12:07:15.351Z,961.33
2023-03-06T12:08:15.388Z,961.35
2023-03-06T12:09:15.440Z,961.33
2023-03-06T12:10:15.486Z,961.31
2023-03-06T12:11:15.559Z,961.31
2023-03-06T12:13:15.616Z,961.25
2023-03-06T12:14:15.691Z,961.24
2023-03-06T12:15:16.262Z,961.22
2023-03-06T12:16:15.770Z,961.27
2023-03-06T12:17:15.775Z,961.28
2023-03-06T12:18:15.838Z,961.25
2023-03-06T12:19:15.952Z,961.22
2023-03-06T12:20:16.160Z,961.23
2023-03-06T12:21:15.992Z,961.23
2023-03-06T12:22:16.060Z,961.20
2023-03-06T12:23:16.154Z,961.22
2023-03-06T12:24:16.141Z,961.19
2023-03-06T12:25:16.217Z,961.23
2023-03-06T12:26:16.215Z,961.17
2023-03-06T12:27:16.263Z,961.20
2023-03-06T12:28:16.277Z,961.18
2023-03-06T12:29:16.337Z,961.19
2023-03-06T12:30:16.453Z,961.14
2023-03-06T12:31:16.456Z,961.16
2023-03-06T12:32:16.537Z,961.18
2023-03-06T12:33:16.614Z,961.11
2023-03-06T12:34:16.569Z,961.18
2023-03-06T12:35:16.801Z,961.13
2023-03-06T12:36:16.687Z,961.18
2023-03-06T12:37:16.776Z,961.10
2023-03-06T12:38:16.777Z,961.09
2023-03-06T12:39:16.811Z,961.10
2023-03-06T12:40:16.841Z,961.12
2023-03-06T12:41:16.884Z,961.13
2023-03-06T12:42:23.261Z,961.07
2023-03-06T12:43:17.088Z,961.05
2023-03-06T12:44:17.034Z,961.00
2023-03-06T12:45:17.049Z,961.04
2023-03-06T12:46:17.114Z,961.01
2023-03-06T12:47:17.287Z,960.97
2023-03-06T12:48:17.180Z,960.98
2023-03-06T12:49:26.337Z,960.99
2023-03-06T12:50:17.271Z,960.96
2023-03-06T12:51:17.334Z,960.96
2023-03-06T12:52:18.705Z,960.95
2023-03-06T12:53:17.404Z,960.94
2023-03-06T12:54:17.485Z,960.96